createdAt,value
2017-08-08T00:01:24.563Z,47.84
2017-08-08T00:03:51.966Z,47.97
2017-08-08T00:06:19.347Z,48.17
2017-08-08T00:08:46.759Z,48.65
2017-08-08T00:11:14.153Z,48.97
2017-08-08T00:13:41.536Z,49.50
2017-08-08T00:16:08.947Z,49.85
2017-08-08T00:18:36.542Z,50.27
2017-08-08T00:21:03.939Z,50.49
2017-08-08T00:23:31.318Z,50.38
2017-08-08T00:25:58.715Z,50.55
2017-08-08T00:28:26.098Z,50.63
2017-08-08T00:30:53.501Z,50.84
2017-08-08T00:33:20.879Z,51.03
2017-08-08T00:35:48.283Z,51.12
2017-08-08T00:38:15.688Z,51.58
2017-08-08T00:40:43.285Z,51.63
2017-08-08T00:43:10.679Z,51.63
2017-08-08T00:45:38.076Z,51.58
2017-08-08T00:48:05.458Z,51.67
2017-08-08T00:50:32.864Z,51.76
2017-08-08T00:53:00.250Z,51.83
2017-08-08T00:55:27.654Z,51.95
2017-08-08T00:57:55.047Z,52.37
2017-08-08T01:00:22.434Z,52.71
2017-08-08T01:02:49.838Z,52.99
2017-08-08T01:05:17.236Z,53.18
2017-08-08T01:07:44.624Z,53.26
2017-08-08T01:10:12.016Z,53.22
2017-08-08T01:12:39.618Z,53.27
2017-08-08T01:15:07.224Z,53.49
2017-08-08T01:17:34.615Z,53.67
2017-08-08T01:20:02.020Z,54.18
2017-08-08T01:22:29.407Z,54.32
2017-08-08T01:24:56.813Z,54.68
2017-08-08T01:27:24.208Z,55.01
2017-08-08T01:29:51.592Z,54.99
2017-08-08T01:32:18.986Z,55.07
2017-08-08T01:34:46.383Z,55.38
2017-08-08T01:37:13.771Z,55.47
2017-08-08T01:39:41.154Z,55.65
2017-08-08T01:42:08.550Z,55.72
2017-08-08T01:44:35.935Z,55.59
2017-08-08T01:47:03.343Z,55.73
2017-08-08T01:49:30.943Z,55.64
2017-08-08T01:51:58.335Z,55.41
2017-08-08T01:54:25.738Z,55.64
2017-08-08T01:56:53.128Z,55.57
2017-08-08T01:59:20.527Z,55.73
2017-08-08T02:01:47.918Z,55.84
2017-08-08T02:04:15.323Z,55.92
2017-08-08T02:06:42.703Z,55.86
2017-08-08T02:09:10.094Z,55.72
2017-08-08T02:11:37.491Z,56.00
2017-08-08T02:14:04.886Z,55.75
2017-08-08T02:16:32.269Z,55.94
2017-08-08T02:18:59.674Z,56.31
2017-08-08T02:21:27.062Z,56.49
2017-08-08T02:23:54.493Z,56.49
2017-08-08T02:26:21.856Z,56.46
2017-08-08T02:28:49.262Z,56.73
2017-08-08T02:31:16.662Z,56.57
2017-08-08T02:33:44.058Z,56.36
2017-08-08T02:36:11.453Z,56.58
2017-08-08T02:38:38.850Z,56.75
2017-08-08T02:41:06.238Z,56.67
2017-08-08T02:43:33.623Z,56.68
2017-08-08T02:46:01.025Z,56.98
2017-08-08T02:48:28.444Z,56.73
2017-08-08T02:50:56.051Z,56.70
2017-08-08T02:53:23.455Z,56.50
2017-08-08T02:55:50.846Z,56.60
2017-08-08T02:58:18.239Z,56.67
2017-08-08T03:00:45.627Z,56.74
2017-08-08T03:03:13.007Z,56.95
2017-08-08T03:05:40.415Z,57.38
2017-08-08T03:08:08.003Z,57.33
2017-08-08T03:10:35.399Z,57.71
2017-08-08T03:13:02.782Z,57.74
2017-08-08T03:15:30.175Z,57.88
2017-08-08T03:17:57.562Z,57.89
2017-08-08T03:20:24.963Z,57.83
2017-08-08T03:22:52.351Z,57.90
2017-08-08T03:25:19.742Z,58.02
2017-08-08T03:27:47.135Z,57.98
2017-08-08T03:30:14.763Z,58.07
2017-08-08T03:32:42.286Z,58.18
2017-08-08T03:35:09.675Z,58.47
2017-08-08T03:37:37.066Z,58.29
2017-08-08T03:40:04.467Z,58.25
2017-08-08T03:42:31.866Z,58.45
2017-08-08T03:44:59.248Z,58.65
2017-08-08T03:47:26.679Z,58.71
2017-08-08T03:49:54.071Z,58.93
2017-08-08T03:52:21.463Z,58.96
2017-08-08T03:54:48.842Z,58.81
2017-08-08T03:57:16.251Z,58.76
2017-08-08T03:59:43.637Z,58.82
2017-08-08T04:02:11.080Z,58.96
2017-08-08T04:04:38.479Z,59.22
2017-08-08T04:07:05.883Z,59.74
2017-08-08T04:09:33.287Z,59.70
2017-08-08T04:12:00.914Z,59.95
2017-08-08T04:14:28.299Z,59.46
2017-08-08T04:16:55.700Z,59.63
2017-08-08T04:19:23.085Z,59.39
2017-08-08T04:21:50.565Z,59.50
2017-08-08T04:24:17.968Z,59.33
2017-08-08T04:26:45.354Z,59.65
2017-08-08T04:29:12.743Z,59.49
2017-08-08T04:31:40.143Z,59.43
2017-08-08T04:34:07.694Z,59.36
2017-08-08T04:36:35.078Z,59.60
2017-08-08T04:39:02.471Z,59.75
2017-08-08T04:41:29.868Z,59.81
2017-08-08T04:43:57.265Z,59.53
2017-08-08T04:46:24.652Z,59.44
2017-08-08T04:48:52.055Z,59.77
2017-08-08T04:51:19.434Z,59.68
2017-08-08T04:53:46.846Z,59.41
2017-08-08T04:56:14.470Z,58.92
2017-08-08T04:58:41.874Z,58.66
2017-08-08T05:01:09.263Z,58.83
2017-08-08T05:03:36.663Z,58.92
2017-08-08T05:06:04.050Z,59.12
2017-08-08T05:08:31.444Z,58.64
2017-08-08T05:10:58.832Z,58.35
2017-08-08T05:13:26.221Z,58.11
2017-08-08T05:15:53.620Z,63.27
2017-08-08T05:18:21.018Z,58.11
2017-08-08T05:20:48.406Z,57.95
2017-08-08T05:23:15.794Z,58.11
2017-08-08T05:25:43.187Z,57.97
2017-08-08T05:28:10.578Z,58.54
2017-08-08T05:30:37.991Z,58.48
2017-08-08T05:33:05.372Z,58.20
2017-08-08T05:35:32.778Z,58.31
2017-08-08T05:38:00.162Z,58.30
2017-08-08T05:40:27.554Z,58.51
2017-08-08T05:42:54.960Z,58.16
2017-08-08T05:45:22.351Z,57.55
2017-08-08T05:47:49.734Z,57.44
2017-08-08T05:50:17.130Z,57.36
2017-08-08T05:52:44.511Z,56.98
2017-08-08T05:55:11.894Z,57.36
2017-08-08T05:57:39.292Z,57.33
2017-08-08T06:00:06.697Z,57.97
2017-08-08T06:02:34.099Z,58.13
2017-08-08T06:05:01.479Z,58.35
2017-08-08T06:07:28.880Z,58.77
2017-08-08T06:09:56.271Z,59.65
2017-08-08T06:12:23.671Z,59.22
2017-08-08T06:14:51.068Z,59.79
2017-08-08T06:17:18.470Z,60.01
2017-08-08T06:19:45.863Z,59.58
2017-08-08T06:22:13.251Z,59.38
2017-08-08T06:24:40.642Z,59.46
2017-08-08T06:27:08.043Z,59.51
2017-08-08T06:29:35.472Z,59.04
2017-08-08T06:32:02.863Z,59.17
2017-08-08T06:34:30.259Z,59.94
2017-08-08T06:36:57.657Z,60.22
2017-08-08T06:39:25.050Z,59.98
2017-08-08T06:41:52.446Z,59.79
2017-08-08T06:44:19.830Z,59.80
2017-08-08T06:46:47.223Z,59.67
2017-08-08T06:49:14.611Z,59.74
2017-08-08T06:51:42.011Z,59.84
2017-08-08T06:54:09.406Z,59.97
2017-08-08T06:56:36.799Z,59.80
2017-08-08T06:59:04.188Z,59.78
2017-08-08T07:01:31.582Z,59.21
2017-08-08T07:03:58.980Z,59.13
2017-08-08T07:06:26.366Z,59.04
2017-08-08T07:08:53.974Z,58.76
2017-08-08T07:11:21.359Z,58.39
2017-08-08T07:13:48.759Z,58.33
2017-08-08T07:16:16.155Z,58.66
2017-08-08T07:18:43.543Z,58.53
2017-08-08T07:21:10.943Z,58.17
2017-08-08T07:23:38.542Z,58.42
2017-08-08T07:26:05.934Z,58.43
2017-08-08T07:28:33.339Z,58.16
2017-08-08T07:31:00.740Z,57.89
2017-08-08T07:33:28.127Z,58.56
2017-08-08T07:35:55.532Z,58.03
2017-08-08T07:38:22.911Z,58.50
2017-08-08T07:40:50.307Z,58.16
2017-08-08T07:43:17.699Z,58.27
2017-08-08T07:45:45.097Z,58.39
2017-08-08T07:48:12.486Z,58.80
2017-08-08T07:50:39.874Z,58.37
2017-08-08T07:53:07.265Z,58.15
2017-08-08T07:55:34.682Z,57.86
2017-08-08T07:58:02.075Z,57.81
2017-08-08T08:00:31.590Z,57.64
2017-08-08T08:02:59.036Z,57.90
2017-08-08T08:05:26.439Z,56.61
2017-08-08T08:07:53.841Z,56.82
2017-08-08T08:10:21.222Z,56.04
2017-08-08T08:12:48.621Z,55.63
2017-08-08T08:15:16.006Z,54.96
2017-08-08T08:17:43.428Z,53.97
2017-08-08T08:20:10.814Z,53.91
2017-08-08T08:22:38.195Z,53.76
2017-08-08T08:25:05.604Z,52.99
2017-08-08T08:27:32.990Z,53.26
2017-08-08T08:30:00.398Z,53.31
2017-08-08T08:32:27.789Z,52.46
2017-08-08T08:34:55.173Z,51.70
2017-08-08T08:37:22.562Z,50.88
2017-08-08T08:39:50.167Z,50.76
2017-08-08T08:42:17.561Z,50.71
2017-08-08T08:44:44.968Z,50.07
2017-08-08T08:47:12.356Z,50.14
2017-08-08T08:49:39.738Z,50.18
2017-08-08T08:52:07.140Z,49.67
2017-08-08T08:54:34.535Z,49.31
2017-08-08T08:57:01.943Z,49.29
2017-08-08T08:59:29.555Z,47.53
2017-08-08T09:01:56.959Z,46.70
2017-08-08T09:04:24.344Z,46.68
2017-08-08T09:06:51.968Z,46.73
2017-08-08T09:09:19.351Z,46.96
2017-08-08T09:11:46.746Z,45.88
2017-08-08T09:14:14.127Z,46.24
2017-08-08T09:16:41.520Z,45.09
2017-08-08T09:19:08.903Z,45.01
2017-08-08T09:21:36.300Z,44.82
2017-08-08T09:24:03.890Z,44.80
2017-08-08T09:26:31.303Z,45.10
2017-08-08T09:28:58.683Z,44.69
2017-08-08T09:31:26.290Z,45.14
2017-08-08T09:33:53.688Z,44.77
2017-08-08T09:36:21.074Z,44.52
2017-08-08T09:38:48.471Z,43.70
2017-08-08T09:41:15.858Z,44.24
2017-08-08T09:43:43.355Z,43.18
2017-08-08T09:46:10.747Z,43.50
2017-08-08T09:48:38.132Z,43.04
2017-08-08T09:51:05.520Z,42.57
2017-08-08T09:53:32.923Z,43.15
2017-08-08T09:56:00.319Z,43.95
2017-08-08T09:58:27.725Z,44.01
2017-08-08T10:00:55.178Z,43.76
2017-08-08T10:03:22.568Z,44.05
2017-08-08T10:05:49.956Z,43.27
2017-08-08T10:08:17.359Z,42.82
2017-08-08T10:10:44.756Z,43.04
2017-08-08T10:13:12.152Z,43.60
2017-08-08T10:15:39.538Z,43.26
2017-08-08T10:18:06.943Z,43.03
2017-08-08T10:20:34.551Z,42.95
2017-08-08T10:23:01.932Z,43.44
2017-08-08T10:25:29.331Z,43.75
2017-08-08T10:27:56.720Z,43.49
2017-08-08T10:30:24.106Z,43.83
2017-08-08T10:32:51.509Z,43.83
2017-08-08T10:35:18.899Z,43.32
2017-08-08T10:37:46.290Z,42.97
2017-08-08T10:40:13.683Z,43.57
2017-08-08T10:42:41.092Z,42.55
2017-08-08T10:45:08.693Z,42.72
2017-08-08T10:47:36.078Z,43.27
2017-08-08T10:50:03.481Z,43.70
2017-08-08T10:52:30.862Z,43.51
2017-08-08T10:54:58.258Z,43.74
2017-08-08T10:57:26.584Z,44.35
2017-08-08T10:59:53.988Z,44.30
2017-08-08T11:02:21.406Z,44.22
2017-08-08T11:04:48.799Z,44.60
2017-08-08T11:07:16.199Z,44.29
2017-08-08T11:09:43.594Z,44.81
2017-08-08T11:12:10.998Z,45.22
2017-08-08T11:14:38.432Z,44.37
2017-08-08T11:17:05.831Z,44.53
2017-08-08T11:19:33.213Z,44.98
2017-08-08T11:22:00.615Z,45.21
2017-08-08T11:24:28.011Z,44.91
2017-08-08T11:26:55.411Z,44.67
2017-08-08T11:29:22.802Z,45.05
2017-08-08T11:31:50.223Z,45.30
2017-08-08T11:34:17.616Z,45.44
2017-08-08T11:36:45.018Z,45.89
2017-08-08T11:39:12.427Z,46.13
2017-08-08T11:41:39.823Z,46.35
2017-08-08T11:44:07.217Z,46.05
2017-08-08T11:46:34.613Z,46.27
2017-08-08T11:49:02.003Z,46.21
2017-08-08T11:51:29.719Z,46.94
2017-08-08T11:53:57.110Z,46.59
2017-08-08T11:56:24.510Z,46.70
2017-08-08T11:58:51.917Z,45.91
2017-08-08T12:01:19.299Z,46.58
2017-08-08T12:03:46.687Z,46.80
2017-08-08T12:06:14.074Z,46.85
2017-08-08T12:08:41.459Z,46.65
2017-08-08T12:11:08.862Z,46.66
2017-08-08T12:13:36.254Z,46.78
2017-08-08T12:16:03.653Z,46.83
2017-08-08T12:18:31.034Z,46.72
2017-08-08T12:20:58.442Z,47.13
2017-08-08T12:23:25.834Z,46.52
2017-08-08T12:25:53.227Z,47.05
2017-08-08T12:28:20.616Z,46.74
2017-08-08T12:30:48.011Z,46.69
2017-08-08T12:33:15.390Z,46.71
2017-08-08T12:35:42.802Z,46.74
2017-08-08T12:38:10.188Z,46.82
2017-08-08T12:40:37.619Z,46.39
2017-08-08T12:43:05.224Z,46.24
2017-08-08T12:45:32.614Z,46.40
2017-08-08T12:48:00.011Z,46.74
2017-08-08T12:50:27.402Z,46.88
2017-08-08T12:52:54.790Z,46.60
2017-08-08T12:55:22.191Z,46.75
2017-08-08T12:57:49.586Z,47.09
2017-08-08T13:00:16.966Z,46.85
2017-08-08T13:02:44.367Z,47.38
2017-08-08T13:05:11.746Z,47.12
2017-08-08T13:07:39.187Z,47.10
2017-08-08T13:10:06.586Z,47.67
2017-08-08T13:12:34.035Z,47.60
2017-08-08T13:15:01.706Z,47.36
2017-08-08T13:17:29.103Z,47.46
2017-08-08T13:19:56.722Z,48.06
2017-08-08T13:22:24.119Z,48.32
2017-08-08T13:24:51.506Z,48.24
2017-08-08T13:27:18.932Z,47.60
2017-08-08T13:29:46.331Z,48.38
2017-08-08T13:32:13.746Z,48.00
2017-08-08T13:34:41.147Z,47.99
2017-08-08T13:37:09.354Z,48.06
2017-08-08T13:39:36.747Z,48.10
2017-08-08T13:42:04.130Z,48.12
2017-08-08T13:44:31.532Z,49.10
2017-08-08T13:46:58.911Z,49.71
2017-08-08T13:49:26.327Z,49.45
2017-08-08T13:51:53.711Z,49.15
2017-08-08T13:54:21.107Z,49.60
2017-08-08T13:56:48.506Z,49.88
2017-08-08T13:59:15.894Z,50.48
2017-08-08T14:01:43.334Z,51.97
2017-08-08T14:04:10.735Z,51.70
2017-08-08T14:06:38.127Z,52.85
2017-08-08T14:09:05.510Z,52.92
2017-08-08T14:11:32.947Z,52.40
2017-08-08T14:14:00.362Z,52.33
2017-08-08T14:16:27.759Z,53.79
2017-08-08T14:18:55.159Z,54.40
2017-08-08T14:21:22.615Z,55.74
2017-08-08T14:23:50.125Z,57.21
2017-08-08T14:26:17.531Z,59.24
2017-08-08T14:28:44.929Z,57.88
2017-08-08T14:31:12.322Z,58.94
2017-08-08T14:33:39.702Z,60.86
2017-08-08T14:36:07.102Z,60.36
2017-08-08T14:38:34.487Z,61.46
2017-08-08T14:41:01.891Z,62.44
2017-08-08T14:43:29.279Z,62.21
2017-08-08T14:45:56.674Z,61.31
2017-08-08T14:48:24.068Z,61.50
2017-08-08T14:50:51.459Z,60.64
2017-08-08T14:53:18.855Z,60.82
2017-08-08T14:55:46.248Z,60.28
2017-08-08T14:58:13.640Z,60.17
2017-08-08T15:00:41.035Z,61.53
2017-08-08T15:03:08.431Z,62.08
2017-08-08T15:05:35.851Z,62.42
2017-08-08T15:08:03.243Z,62.74
2017-08-08T15:10:30.634Z,62.82
2017-08-08T15:12:58.034Z,62.86
2017-08-08T15:15:25.452Z,63.66
2017-08-08T15:17:52.830Z,62.95
2017-08-08T15:20:20.224Z,64.76
2017-08-08T15:22:47.631Z,64.51
2017-08-08T15:25:15.031Z,64.26
2017-08-08T15:27:42.434Z,64.73
2017-08-08T15:30:09.821Z,64.91
2017-08-08T15:32:37.227Z,64.10
2017-08-08T15:35:04.623Z,65.33
2017-08-08T15:37:32.054Z,63.45
2017-08-08T15:39:59.443Z,63.30
2017-08-08T15:42:26.846Z,61.06
2017-08-08T15:44:54.243Z,60.12
2017-08-08T15:47:21.646Z,61.34
2017-08-08T15:49:49.042Z,60.22
2017-08-08T15:52:16.656Z,61.02
2017-08-08T15:54:44.155Z,60.97
2017-08-08T15:57:11.558Z,62.14
2017-08-08T15:59:38.955Z,62.81
2017-08-08T16:02:06.378Z,62.83
2017-08-08T16:04:33.780Z,63.51
2017-08-08T16:07:01.171Z,62.48
2017-08-08T16:09:28.587Z,62.23
2017-08-08T16:11:55.990Z,61.29
2017-08-08T16:14:23.382Z,62.87
2017-08-08T16:16:50.775Z,63.69
2017-08-08T16:19:18.195Z,65.70
2017-08-08T16:21:45.597Z,64.03
2017-08-08T16:24:12.988Z,63.57
2017-08-08T16:26:40.391Z,62.66
2017-08-08T16:29:07.774Z,61.24
2017-08-08T16:31:35.179Z,61.96
2017-08-08T16:34:02.578Z,61.34
2017-08-08T16:36:29.984Z,60.93
2017-08-08T16:38:57.375Z,61.46
2017-08-08T16:41:24.982Z,61.45
2017-08-08T16:43:52.596Z,62.22
2017-08-08T16:46:20.004Z,62.40
2017-08-08T16:48:47.394Z,61.60
2017-08-08T16:51:14.808Z,61.13
2017-08-08T16:53:42.182Z,62.25
2017-08-08T16:56:09.587Z,62.08
2017-08-08T16:58:36.978Z,62.77
2017-08-08T17:01:04.371Z,62.59
2017-08-08T17:03:31.759Z,63.47
2017-08-08T17:05:59.167Z,64.58
2017-08-08T17:08:26.571Z,65.20
2017-08-08T17:10:53.999Z,65.65
2017-08-08T17:13:21.394Z,66.56
2017-08-08T17:15:48.778Z,67.19
2017-08-08T17:18:16.184Z,66.22
2017-08-08T17:20:43.567Z,66.18
2017-08-08T17:23:10.949Z,65.10
2017-08-08T17:25:38.351Z,65.63
2017-08-08T17:28:05.747Z,66.52
2017-08-08T17:30:33.149Z,63.73
2017-08-08T17:33:00.546Z,67.31
2017-08-08T17:35:27.935Z,66.00
2017-08-08T17:37:55.543Z,64.96
2017-08-08T17:40:22.930Z,64.40
2017-08-08T17:42:50.335Z,67.32
2017-08-08T17:45:17.942Z,68.85
2017-08-08T17:47:45.555Z,69.31
2017-08-08T17:50:12.947Z,69.06
2017-08-08T17:52:40.363Z,68.76
2017-08-08T17:55:07.754Z,69.33
2017-08-08T17:57:35.167Z,69.74
2017-08-08T18:00:02.563Z,70.70
2017-08-08T18:02:30.183Z,70.21
2017-08-08T18:04:57.785Z,71.36
2017-08-08T18:07:25.173Z,71.64
2017-08-08T18:09:52.597Z,71.77
2017-08-08T18:12:20.006Z,73.05
2017-08-08T18:14:47.419Z,72.94
2017-08-08T18:17:15.026Z,72.78
2017-08-08T18:19:42.427Z,72.94
2017-08-08T18:22:09.818Z,72.44
2017-08-08T18:24:37.221Z,68.91
2017-08-08T18:27:04.678Z,70.27
2017-08-08T18:29:32.088Z,69.73
2017-08-08T18:31:59.701Z,68.53
2017-08-08T18:34:27.115Z,69.04
2017-08-08T18:36:54.503Z,68.69
2017-08-08T18:39:21.898Z,68.51
2017-08-08T18:41:49.512Z,67.24
2017-08-08T18:44:16.903Z,66.76
2017-08-08T18:46:44.298Z,66.53
2017-08-08T18:49:11.694Z,66.12
2017-08-08T18:51:39.099Z,66.27
2017-08-08T18:54:06.522Z,67.76
2017-08-08T18:56:33.916Z,66.79
2017-08-08T18:59:01.314Z,67.13
2017-08-08T19:01:28.818Z,67.11
2017-08-08T19:03:56.187Z,66.25
2017-08-08T19:06:23.654Z,65.24
2017-08-08T19:08:51.024Z,66.05
2017-08-08T19:11:18.427Z,65.79
2017-08-08T19:13:45.825Z,66.12
2017-08-08T19:16:13.211Z,65.41
2017-08-08T19:18:40.610Z,66.54
2017-08-08T19:21:08.010Z,67.19
2017-08-08T19:23:35.402Z,66.94
2017-08-08T19:26:02.810Z,67.16
2017-08-08T19:28:30.202Z,66.49
2017-08-08T19:30:57.607Z,67.19
2017-08-08T19:33:24.998Z,66.63
2017-08-08T19:35:52.412Z,67.25
2017-08-08T19:38:20.427Z,67.90
2017-08-08T19:40:48.047Z,68.22
2017-08-08T19:43:15.441Z,67.24
2017-08-08T19:45:42.842Z,68.70
2017-08-08T19:48:10.236Z,67.57
2017-08-08T19:50:37.659Z,68.58
2017-08-08T19:53:05.050Z,68.73
2017-08-08T19:55:32.698Z,68.99
2017-08-08T19:58:00.112Z,70.03
2017-08-08T20:00:27.568Z,69.65
2017-08-08T20:02:54.967Z,68.44
2017-08-08T20:05:22.359Z,67.50
2017-08-08T20:07:49.787Z,67.05
2017-08-08T20:10:17.186Z,67.90
2017-08-08T20:12:44.586Z,67.87
2017-08-08T20:15:11.982Z,67.54
2017-08-08T20:17:39.383Z,68.33
2017-08-08T20:20:06.784Z,66.13
2017-08-08T20:22:34.190Z,67.50
2017-08-08T20:25:01.591Z,66.95
2017-08-08T20:27:28.986Z,66.69
2017-08-08T20:29:56.411Z,67.73
2017-08-08T20:32:23.824Z,69.16
2017-08-08T20:34:51.231Z,68.73
2017-08-08T20:37:18.850Z,69.07
2017-08-08T20:39:46.478Z,69.18
2017-08-08T20:42:13.879Z,69.52
2017-08-08T20:44:41.271Z,70.00
2017-08-08T20:47:08.668Z,69.58
2017-08-08T20:49:36.070Z,69.53
2017-08-08T20:52:03.458Z,70.01
2017-08-08T20:54:30.866Z,70.54
2017-08-08T20:56:58.255Z,69.22
2017-08-08T20:59:25.672Z,69.12
2017-08-08T21:01:53.065Z,69.30
2017-08-08T21:04:20.467Z,69.52
2017-08-08T21:06:47.858Z,69.60
2017-08-08T21:09:15.263Z,70.02
2017-08-08T21:11:44.331Z,69.93
2017-08-08T21:14:11.763Z,70.39
2017-08-08T21:16:39.159Z,71.37
2017-08-08T21:19:06.575Z,71.18
2017-08-08T21:21:33.962Z,71.86
2017-08-08T21:24:01.367Z,72.04
2017-08-08T21:26:28.764Z,72.17
2017-08-08T21:28:56.167Z,71.32
2017-08-08T21:31:23.553Z,71.04
2017-08-08T21:33:50.942Z,70.86
2017-08-08T21:36:18.345Z,70.16
2017-08-08T21:38:45.739Z,69.36
2017-08-08T21:41:13.131Z,70.14
2017-08-08T21:43:40.535Z,67.99
2017-08-08T21:46:07.919Z,68.40
2017-08-08T21:48:35.322Z,66.22
2017-08-08T21:51:02.918Z,66.54
2017-08-08T21:53:30.338Z,66.26
2017-08-08T21:55:57.724Z,65.59
2017-08-08T21:58:25.115Z,65.52
2017-08-08T22:00:52.728Z,65.41
2017-08-08T22:03:20.118Z,64.86
2017-08-08T22:05:47.516Z,64.47
2017-08-08T22:08:14.903Z,64.07
2017-08-08T22:10:42.290Z,64.24
2017-08-08T22:13:09.691Z,64.10
2017-08-08T22:15:37.078Z,64.01
2017-08-08T22:18:04.480Z,64.11
2017-08-08T22:20:31.886Z,64.50
2017-08-08T22:22:59.279Z,65.01
2017-08-08T22:25:26.677Z,64.04
2017-08-08T22:27:54.310Z,64.02
2017-08-08T22:30:21.703Z,64.43
2017-08-08T22:32:49.103Z,64.51
2017-08-08T22:35:16.499Z,64.33
2017-08-08T22:37:43.901Z,64.35
2017-08-08T22:40:11.309Z,64.37
2017-08-08T22:42:38.949Z,63.93
2017-08-08T22:45:06.347Z,64.22
2017-08-08T22:47:33.758Z,63.78
2017-08-08T22:50:01.155Z,63.24
2017-08-08T22:52:28.554Z,63.32
2017-08-08T22:54:55.955Z,63.39
2017-08-08T22:57:23.366Z,64.13
2017-08-08T22:59:50.763Z,64.36
2017-08-08T23:02:18.166Z,64.71
2017-08-08T23:04:45.550Z,65.23
2017-08-08T23:07:12.955Z,65.64
2017-08-08T23:09:40.363Z,65.40
2017-08-08T23:12:07.763Z,64.67
2017-08-08T23:14:35.158Z,64.76
2017-08-08T23:17:02.555Z,64.88
2017-08-08T23:19:29.959Z,65.07
2017-08-08T23:21:57.644Z,65.21
2017-08-08T23:24:25.047Z,65.10
2017-08-08T23:26:52.443Z,65.12
2017-08-08T23:29:20.115Z,64.87
2017-08-08T23:31:47.506Z,65.52
2017-08-08T23:34:14.916Z,65.55
2017-08-08T23:36:42.317Z,65.81
2017-08-08T23:39:09.706Z,65.69
2017-08-08T23:41:37.116Z,66.12
2017-08-08T23:44:04.528Z,66.07
2017-08-08T23:46:31.924Z,65.52
2017-08-08T23:48:59.331Z,65.46
2017-08-08T23:51:26.725Z,65.13
2017-08-08T23:53:54.126Z,65.10
2017-08-08T23:56:21.515Z,65.15
2017-08-08T23:58:49.183Z,65.19
